Overview Statistics Trail Chart Weather Telemetry Raw packets
 

This is the latest recevied weather packets stored in our database for station/object WI0K. If no packets are shown the sender has not sent any weather packets the latest 10 day(s).

<< 33 34 35 36 37 38 39 >>
Time Temp. Humidity Pressure Rain* Wind** Luminosity Snow
1788441988 17.22° C 55% 1018.2 hPa 0 mm - 115 W/m² -
1788441687 16.67° C 56% 1018.1 hPa 0 mm - 100 W/m² -
1788441387 15.56° C 60% 1018.1 hPa 0 mm - 86 W/m² -
1788441085 15° C 64% 1018.2 hPa 0 mm - 70 W/m² -
1788440785 14.44° C 67% 1018.2 hPa 0 mm - 58 W/m² -
1788440484 14.44° C 68% 1018.2 hPa 0 mm - 30 W/m² -
1788440183 13.89° C 70% 1018.2 hPa 0 mm - 23 W/m² -
1788439882 13.89° C 69% 1018.3 hPa 0 mm - 19 W/m² -
1788439581 14.44° C 70% 1018.3 hPa 0 mm - 16 W/m² -
1788439280 14.44° C 69% 1018.3 hPa 0 mm - 13 W/m² -
1788438979 14.44° C 69% 1018.2 hPa 0 mm - 9 W/m² -
1788438678 15° C 67% 1018.1 hPa 0 mm - 6 W/m² -
1788438377 15° C 67% 1017.9 hPa 0 mm - 3 W/m² -
1788438073 15° C 66% 1017.8 hPa 0 mm - 2 W/m² -
1788437771 15° C 66% 1017.7 hPa 0 mm - 1 W/m² -
1788437471 14.44° C 69% 1017.7 hPa 0 mm - 0 W/m² -
1788437170 14.44° C 69% 1017.8 hPa 0 mm - 0 W/m² -
1788436869 14.44° C 68% 1017.7 hPa 0 mm - 0 W/m² -
1788436569 14.44° C 69% 1017.7 hPa 0 mm - 0 W/m² -
1788436268 14.44° C 71% 1017.8 hPa 0 mm - 0 W/m² -
1788435967 15° C 68% 1017.7 hPa 0 mm - 0 W/m² -
1788435667 15° C 68% 1017.7 hPa 0 mm - 0 W/m² -
1788435366 15° C 67% 1017.6 hPa 0 mm - 0 W/m² -
1788435065 15° C 67% 1017.6 hPa 0 mm - 0 W/m² -
1788434764 15° C 68% 1017.6 hPa 0 mm - 0 W/m² -

* Rain latest hour (hover to see other rain measurements)
** Current wind speed in m/s (hover to see current wind gust speed)